createdAt,value
2023-05-25T00:00:53.408Z,11.60
2023-05-25T00:03:03.983Z,11.60
2023-05-25T00:05:09.416Z,11.60
2023-05-25T00:07:12.180Z,11.60
2023-05-25T00:09:14.937Z,11.70
2023-05-25T00:11:19.532Z,11.70
2023-05-25T00:13:22.289Z,11.70
2023-05-25T00:15:25.091Z,11.70
2023-05-25T00:17:30.084Z,11.60
2023-05-25T00:19:33.994Z,11.60
2023-05-25T00:21:38.298Z,11.50
2023-05-25T00:23:41.150Z,11.50
2023-05-25T00:25:44.065Z,11.50
2023-05-25T00:27:47.217Z,11.40
2023-05-25T00:29:50.024Z,11.40
2023-05-25T00:31:52.917Z,11.20
2023-05-25T00:33:57.021Z,11.10
2023-05-25T00:36:00.189Z,11.10
2023-05-25T00:38:03.168Z,11.20
2023-05-25T00:40:10.306Z,11.10
2023-05-25T00:42:13.460Z,11.00
2023-05-25T00:44:21.584Z,11.00
2023-05-25T00:46:24.802Z,11.10
2023-05-25T00:48:27.924Z,11.10
2023-05-25T00:50:38.857Z,11.10
2023-05-25T00:52:41.797Z,11.00
2023-05-25T00:54:49.047Z,11.00
2023-05-25T00:56:54.014Z,11.10
2023-05-25T00:58:59.077Z,11.10
2023-05-25T01:01:06.295Z,11.10
2023-05-25T01:03:13.426Z,10.70
2023-05-25T01:05:18.401Z,10.60
2023-05-25T01:07:25.257Z,10.70
2023-05-25T01:09:30.407Z,10.80
2023-05-25T01:11:35.988Z,10.80
2023-05-25T01:13:39.766Z,10.90
2023-05-25T01:15:42.858Z,10.80
2023-05-25T01:17:46.925Z,10.80
2023-05-25T01:20:01.538Z,10.80
2023-05-25T01:22:18.473Z,10.90
2023-05-25T01:24:27.879Z,10.90
2023-05-25T01:26:36.068Z,10.80
2023-05-25T01:28:49.955Z,10.70
2023-05-25T01:30:53.249Z,10.80
2023-05-25T01:32:56.824Z,10.80
2023-05-25T01:35:01.404Z,10.80
2023-05-25T01:37:04.375Z,10.80
2023-05-25T01:39:10.964Z,10.80
2023-05-25T01:41:13.783Z,10.80
2023-05-25T01:43:17.521Z,10.80
2023-05-25T01:45:20.970Z,10.80
2023-05-25T01:47:33.786Z,10.80
2023-05-25T01:49:44.861Z,11.00
2023-05-25T01:51:55.849Z,11.10
2023-05-25T01:54:04.145Z,11.20
2023-05-25T01:56:11.587Z,11.20
2023-05-25T01:58:16.368Z,11.40
2023-05-25T02:00:21.498Z,11.40
2023-05-25T02:02:25.045Z,11.50
2023-05-25T02:04:28.210Z,11.50
2023-05-25T02:06:31.850Z,11.60
2023-05-25T02:08:34.634Z,11.60
2023-05-25T02:10:37.393Z,11.60
2023-05-25T02:12:41.605Z,11.60
2023-05-25T02:14:45.968Z,11.60
2023-05-25T02:16:48.745Z,11.60
2023-05-25T02:18:51.883Z,11.70
2023-05-25T02:20:54.674Z,11.70
2023-05-25T02:22:57.443Z,11.80
2023-05-25T02:25:00.255Z,11.80
2023-05-25T02:27:03.466Z,11.90
2023-05-25T02:29:07.616Z,11.90
2023-05-25T02:31:10.547Z,11.90
2023-05-25T02:33:13.850Z,11.80
2023-05-25T02:35:16.724Z,11.90
2023-05-25T02:37:19.529Z,12.00
2023-05-25T02:39:22.315Z,11.80
2023-05-25T02:41:26.362Z,11.90
2023-05-25T02:43:29.126Z,12.00
2023-05-25T02:45:33.210Z,12.10
2023-05-25T02:47:36.125Z,12.20
2023-05-25T02:49:38.885Z,12.10
2023-05-25T02:51:41.762Z,12.00
2023-05-25T02:53:44.554Z,12.00
2023-05-25T02:55:47.323Z,12.10
2023-05-25T02:57:50.141Z,12.10
2023-05-25T02:59:53.167Z,12.30
2023-05-25T03:01:57.554Z,12.40
2023-05-25T03:04:00.484Z,12.60
2023-05-25T03:06:04.131Z,12.60
2023-05-25T03:08:07.173Z,12.70
2023-05-25T03:10:10.896Z,12.80
2023-05-25T03:12:13.699Z,13.00
2023-05-25T03:14:16.476Z,13.00
2023-05-25T03:16:19.268Z,13.00
2023-05-25T03:18:23.375Z,13.00
2023-05-25T03:20:26.534Z,13.00
2023-05-25T03:22:29.315Z,13.00
2023-05-25T03:24:32.078Z,13.10
2023-05-25T03:26:35.001Z,13.10
2023-05-25T03:28:38.926Z,13.20
2023-05-25T03:30:41.767Z,13.20
2023-05-25T03:32:44.729Z,13.20
2023-05-25T03:34:48.850Z,12.90
2023-05-25T03:36:53.469Z,12.80
2023-05-25T03:38:56.248Z,12.70
2023-05-25T03:40:59.881Z,12.70
2023-05-25T03:43:02.755Z,12.70
2023-05-25T03:45:06.586Z,12.70
2023-05-25T03:47:09.569Z,12.70
2023-05-25T03:49:14.078Z,12.70
2023-05-25T03:51:18.444Z,12.70
2023-05-25T03:53:21.234Z,12.70
2023-05-25T03:55:23.981Z,12.70
2023-05-25T03:57:26.726Z,12.80
2023-05-25T03:59:29.470Z,12.80
2023-05-25T04:01:32.298Z,12.80
2023-05-25T04:03:35.606Z,12.80
2023-05-25T04:05:38.698Z,12.90
2023-05-25T04:07:43.032Z,12.90
2023-05-25T04:09:45.884Z,12.90
2023-05-25T04:11:48.712Z,12.90
2023-05-25T04:13:51.518Z,12.90
2023-05-25T04:15:54.346Z,12.90
2023-05-25T04:17:59.500Z,12.80
2023-05-25T04:20:02.385Z,12.80
2023-05-25T04:22:05.356Z,12.80
2023-05-25T04:24:09.648Z,12.80
2023-05-25T04:26:12.489Z,12.80
2023-05-25T04:28:15.312Z,12.80
2023-05-25T04:30:18.232Z,12.80
2023-05-25T04:32:21.574Z,12.80
2023-05-25T04:34:24.409Z,12.80
2023-05-25T04:36:27.218Z,12.90
2023-05-25T04:38:30.847Z,12.90
2023-05-25T04:40:35.472Z,13.00
2023-05-25T04:42:39.753Z,13.00
2023-05-25T04:44:42.523Z,13.00
2023-05-25T04:46:45.311Z,13.10
2023-05-25T04:48:48.131Z,13.10
2023-05-25T04:50:51.799Z,13.10
2023-05-25T04:52:55.051Z,13.10
2023-05-25T04:54:57.841Z,13.20
2023-05-25T04:57:02.994Z,13.30
2023-05-25T04:59:06.347Z,13.30
2023-05-25T05:01:09.193Z,13.30
2023-05-25T05:03:12.093Z,13.40
2023-05-25T05:05:14.912Z,13.50
2023-05-25T05:07:17.656Z,13.40
2023-05-25T05:09:20.507Z,13.50
2023-05-25T05:11:23.636Z,13.60
2023-05-25T05:13:27.747Z,13.60
2023-05-25T05:15:30.879Z,13.70
2023-05-25T05:17:34.123Z,13.80
2023-05-25T05:19:37.097Z,13.80
2023-05-25T05:21:39.888Z,13.90
2023-05-25T05:23:44.107Z,14.00
2023-05-25T05:25:47.322Z,14.10
2023-05-25T05:27:50.221Z,14.10
2023-05-25T05:29:54.365Z,14.20
2023-05-25T05:31:57.313Z,14.10
2023-05-25T05:34:00.448Z,14.10
2023-05-25T05:36:04.731Z,14.20
2023-05-25T05:38:07.566Z,14.40
2023-05-25T05:40:10.832Z,14.60
2023-05-25T05:42:13.616Z,14.70
2023-05-25T05:44:16.426Z,14.90
2023-05-25T05:46:20.635Z,15.00
2023-05-25T05:48:23.450Z,15.00
2023-05-25T05:50:26.464Z,14.70
2023-05-25T05:52:29.585Z,14.80
2023-05-25T05:54:32.373Z,15.00
2023-05-25T05:56:35.165Z,15.10
2023-05-25T05:58:37.960Z,15.30
2023-05-25T06:00:40.826Z,15.50
2023-05-25T06:02:45.065Z,15.70
2023-05-25T06:04:48.038Z,15.80
2023-05-25T06:06:51.016Z,15.60
2023-05-25T06:08:53.834Z,15.70
2023-05-25T06:10:57.070Z,15.50
2023-05-25T06:12:59.840Z,15.10
2023-05-25T06:15:02.707Z,15.00
2023-05-25T06:17:05.829Z,15.00
2023-05-25T06:19:09.961Z,15.00
2023-05-25T06:21:13.111Z,15.00
2023-05-25T06:23:17.808Z,14.80
2023-05-25T06:25:20.599Z,14.70
2023-05-25T06:27:24.249Z,14.80
2023-05-25T06:29:27.010Z,14.70
2023-05-25T06:31:29.840Z,14.70
2023-05-25T06:33:32.789Z,14.70
2023-05-25T06:35:37.008Z,15.00
2023-05-25T06:37:39.944Z,14.40
2023-05-25T06:39:43.195Z,14.60
2023-05-25T06:41:46.008Z,14.90
2023-05-25T06:43:49.081Z,14.80
2023-05-25T06:45:51.932Z,14.80
2023-05-25T06:47:54.760Z,14.70
2023-05-25T06:49:58.457Z,14.40
2023-05-25T06:52:02.645Z,14.10
2023-05-25T06:54:05.538Z,14.70
2023-05-25T06:56:08.391Z,14.60
2023-05-25T06:58:11.688Z,14.00
2023-05-25T07:00:16.485Z,14.50
2023-05-25T07:02:20.879Z,14.30
2023-05-25T07:04:23.676Z,14.10
2023-05-25T07:06:26.831Z,14.40
2023-05-25T07:08:31.486Z,13.70
2023-05-25T07:10:35.550Z,14.30
2023-05-25T07:12:38.411Z,14.10
2023-05-25T07:14:41.228Z,14.30
2023-05-25T07:16:45.084Z,14.60
2023-05-25T07:18:47.986Z,14.70
2023-05-25T07:20:51.520Z,14.90
2023-05-25T07:22:54.382Z,14.80
2023-05-25T07:24:58.572Z,15.00
2023-05-25T07:27:01.970Z,15.40
2023-05-25T07:29:04.731Z,15.20
2023-05-25T07:31:07.543Z,15.10
2023-05-25T07:33:10.431Z,15.30
2023-05-25T07:35:13.227Z,15.60
2023-05-25T07:37:16.017Z,16.00
2023-05-25T07:39:18.799Z,16.30
2023-05-25T07:41:22.895Z,16.60
2023-05-25T07:43:25.662Z,16.90
2023-05-25T07:45:28.451Z,16.50
2023-05-25T07:47:31.412Z,16.30
2023-05-25T07:49:34.256Z,16.20
2023-05-25T07:51:37.608Z,16.40
2023-05-25T07:53:42.530Z,16.40
2023-05-25T07:55:45.644Z,16.40
2023-05-25T07:57:49.898Z,16.60
2023-05-25T07:59:52.749Z,16.50
2023-05-25T08:01:55.537Z,16.80
2023-05-25T08:03:58.460Z,17.00
2023-05-25T08:06:01.410Z,16.20
2023-05-25T08:08:04.173Z,16.60
2023-05-25T08:10:08.000Z,16.70
2023-05-25T08:12:26.994Z,16.70
2023-05-25T08:14:34.869Z,16.20
2023-05-25T08:16:37.804Z,15.80
2023-05-25T08:18:40.947Z,16.30
2023-05-25T08:20:43.812Z,16.50
2023-05-25T08:22:46.641Z,16.70
2023-05-25T08:24:49.489Z,16.60
2023-05-25T08:26:54.445Z,16.90
2023-05-25T08:29:00.510Z,16.80
2023-05-25T08:31:05.268Z,16.50
2023-05-25T08:33:08.613Z,16.80
2023-05-25T08:35:13.950Z,17.00
2023-05-25T08:37:17.816Z,16.60
2023-05-25T08:39:20.836Z,17.00
2023-05-25T08:41:23.663Z,17.00
2023-05-25T08:43:26.471Z,16.70
2023-05-25T08:45:35.551Z,16.80
2023-05-25T08:47:44.786Z,16.90
2023-05-25T08:49:50.869Z,17.00
2023-05-25T08:51:55.468Z,17.40
2023-05-25T08:54:00.642Z,17.10
2023-05-25T08:56:07.315Z,17.30
2023-05-25T08:58:14.825Z,17.00
2023-05-25T09:00:21.801Z,17.40
2023-05-25T09:02:31.523Z,17.50
2023-05-25T09:04:35.926Z,17.10
2023-05-25T09:06:38.774Z,17.00
2023-05-25T09:08:42.000Z,17.30
2023-05-25T09:10:44.808Z,17.70
2023-05-25T09:12:48.448Z,18.00
2023-05-25T09:14:51.492Z,18.00
2023-05-25T09:16:54.778Z,18.10
2023-05-25T09:18:57.575Z,17.80
2023-05-25T09:21:02.816Z,17.70
2023-05-25T09:23:07.203Z,17.40
2023-05-25T09:25:12.460Z,18.10
2023-05-25T09:27:19.521Z,17.80
2023-05-25T09:29:22.360Z,18.30
2023-05-25T09:31:25.637Z,17.80
2023-05-25T09:33:28.535Z,18.40
2023-05-25T09:35:31.420Z,18.90
2023-05-25T09:37:36.164Z,18.60
2023-05-25T09:39:39.251Z,18.20
2023-05-25T09:41:42.585Z,18.60
2023-05-25T09:43:57.680Z,18.30
2023-05-25T09:46:09.405Z,18.70
2023-05-25T09:48:12.721Z,18.80
2023-05-25T09:50:18.033Z,18.80
2023-05-25T09:52:21.715Z,18.60
2023-05-25T09:54:26.790Z,18.80
2023-05-25T09:56:33.811Z,18.60
2023-05-25T09:58:37.291Z,18.50
2023-05-25T10:00:40.037Z,18.70
2023-05-25T10:02:43.084Z,19.10
2023-05-25T10:04:46.394Z,19.10
2023-05-25T10:06:50.893Z,18.70
2023-05-25T10:08:56.453Z,18.60
2023-05-25T10:11:01.138Z,18.80
2023-05-25T10:13:05.930Z,19.00
2023-05-25T10:15:10.470Z,18.90
2023-05-25T10:17:19.698Z,19.00
2023-05-25T10:19:29.508Z,18.80
2023-05-25T10:21:34.218Z,18.90
2023-05-25T10:23:41.893Z,18.70
2023-05-25T10:25:46.397Z,18.70
2023-05-25T10:27:59.655Z,18.40
2023-05-25T10:30:04.605Z,18.00
2023-05-25T10:32:08.617Z,18.30
2023-05-25T10:34:11.461Z,18.80
2023-05-25T10:36:14.908Z,18.70
2023-05-25T10:38:19.448Z,19.10
2023-05-25T10:40:23.048Z,19.20
2023-05-25T10:42:27.379Z,19.50
2023-05-25T10:44:32.565Z,19.10
2023-05-25T10:46:36.279Z,19.40
2023-05-25T10:48:40.148Z,19.70
2023-05-25T10:50:43.026Z,19.80
2023-05-25T10:52:46.103Z,19.70
2023-05-25T10:54:49.972Z,19.90
2023-05-25T10:57:12.755Z,20.10
2023-05-25T10:59:15.790Z,19.60
2023-05-25T11:01:19.960Z,19.40
2023-05-25T11:03:22.915Z,19.20
2023-05-25T11:05:39.645Z,18.80
2023-05-25T11:07:53.812Z,19.00
2023-05-25T11:09:59.381Z,19.20
2023-05-25T11:12:04.027Z,19.40
2023-05-25T11:14:21.919Z,19.40
2023-05-25T11:16:36.159Z,19.90
2023-05-25T11:18:39.475Z,19.80
2023-05-25T11:20:42.421Z,19.90
2023-05-25T11:22:45.280Z,19.90
2023-05-25T11:24:48.393Z,19.90
2023-05-25T11:26:56.560Z,19.40
2023-05-25T11:29:00.413Z,19.50
2023-05-25T11:31:06.625Z,19.40
2023-05-25T11:33:11.142Z,19.60
2023-05-25T11:35:14.709Z,20.20
2023-05-25T11:37:21.261Z,20.00
2023-05-25T11:39:24.196Z,20.60
2023-05-25T11:41:26.990Z,20.20
2023-05-25T11:43:30.008Z,20.20
2023-05-25T11:45:34.414Z,20.90
2023-05-25T11:47:38.178Z,20.90
2023-05-25T11:49:46.094Z,20.60
2023-05-25T11:51:48.949Z,20.60
2023-05-25T11:53:51.754Z,20.30
2023-05-25T11:56:03.558Z,20.00
2023-05-25T11:58:10.572Z,20.20
2023-05-25T12:00:14.546Z,20.40
2023-05-25T12:02:17.501Z,20.50
2023-05-25T12:04:23.202Z,21.00
2023-05-25T12:06:30.082Z,21.40
2023-05-25T12:08:33.488Z,21.00
2023-05-25T12:10:50.852Z,21.20
2023-05-25T12:12:58.126Z,21.30
2023-05-25T12:15:00.945Z,21.40
2023-05-25T12:17:03.908Z,21.40
2023-05-25T12:19:07.512Z,21.50
2023-05-25T12:21:10.612Z,21.90
2023-05-25T12:23:15.022Z,21.90
2023-05-25T12:25:21.259Z,21.30
2023-05-25T12:27:24.036Z,21.20
2023-05-25T12:29:26.922Z,20.90
2023-05-25T12:31:31.511Z,20.70
2023-05-25T12:33:34.349Z,21.20
2023-05-25T12:35:46.766Z,21.10
2023-05-25T12:37:49.631Z,21.00
2023-05-25T12:39:53.734Z,20.70
2023-05-25T12:41:57.513Z,20.70
2023-05-25T12:44:00.730Z,20.80
2023-05-25T12:46:03.885Z,20.90
2023-05-25T12:48:07.440Z,21.10
2023-05-25T12:50:15.317Z,21.10
2023-05-25T12:52:33.471Z,21.00
2023-05-25T12:54:38.143Z,20.70
2023-05-25T12:56:56.704Z,21.00
2023-05-25T12:59:17.272Z,20.80
2023-05-25T13:01:20.172Z,21.10
2023-05-25T13:03:23.726Z,21.00
2023-05-25T13:05:28.120Z,20.80
2023-05-25T13:07:31.219Z,21.00
2023-05-25T13:09:34.065Z,21.50
2023-05-25T13:11:36.891Z,21.30
2023-05-25T13:13:40.970Z,21.20
2023-05-25T13:15:44.368Z,20.90
2023-05-25T13:17:48.040Z,21.30
2023-05-25T13:19:50.820Z,21.60
2023-05-25T13:21:55.456Z,22.00
2023-05-25T13:23:58.230Z,21.80
2023-05-25T13:26:00.981Z,21.60
2023-05-25T13:28:05.676Z,21.90
2023-05-25T13:30:11.832Z,21.90
2023-05-25T13:32:14.877Z,21.90
2023-05-25T13:34:17.788Z,22.10
2023-05-25T13:36:20.896Z,21.90
2023-05-25T13:38:23.653Z,22.20
2023-05-25T13:40:26.437Z,22.10
2023-05-25T13:42:29.210Z,22.30
2023-05-25T13:44:33.956Z,22.30
2023-05-25T13:46:38.482Z,21.60
2023-05-25T13:48:47.202Z,22.00
2023-05-25T13:50:49.958Z,22.20
2023-05-25T13:52:52.960Z,21.80
2023-05-25T13:54:55.704Z,21.90
2023-05-25T13:56:58.452Z,21.70
2023-05-25T13:59:01.207Z,22.10
2023-05-25T14:01:04.106Z,22.10
2023-05-25T14:03:08.399Z,21.80
2023-05-25T14:05:11.226Z,21.70
2023-05-25T14:07:14.402Z,22.30
2023-05-25T14:09:17.201Z,22.50
2023-05-25T14:11:26.776Z,21.80
2023-05-25T14:13:31.139Z,22.00
2023-05-25T14:15:33.979Z,22.30
2023-05-25T14:17:37.040Z,22.10
2023-05-25T14:19:41.196Z,22.40
2023-05-25T14:21:43.972Z,22.80
2023-05-25T14:23:46.729Z,23.60
2023-05-25T14:25:50.125Z,23.80
2023-05-25T14:27:52.921Z,24.30
2023-05-25T14:29:55.832Z,27.60
2023-05-25T14:31:58.744Z,29.60
2023-05-25T14:34:01.644Z,30.90
2023-05-25T14:36:06.882Z,32.40
2023-05-25T14:38:09.727Z,33.80
2023-05-25T14:40:13.536Z,34.80
2023-05-25T14:42:16.677Z,33.50
2023-05-25T14:44:19.442Z,34.10
2023-05-25T14:46:22.247Z,33.40
2023-05-25T14:48:25.948Z,35.70
2023-05-25T14:50:30.345Z,35.50
2023-05-25T14:52:34.676Z,35.70
2023-05-25T14:54:37.430Z,36.30
2023-05-25T14:56:40.227Z,36.40
2023-05-25T14:58:42.981Z,36.40
2023-05-25T15:00:45.765Z,36.70
2023-05-25T15:02:48.672Z,38.00
2023-05-25T15:04:51.512Z,39.20
2023-05-25T15:06:54.237Z,38.30
2023-05-25T15:08:58.339Z,35.40
2023-05-25T15:11:01.190Z,36.60
2023-05-25T15:13:03.956Z,37.00
2023-05-25T15:15:09.180Z,36.60
2023-05-25T15:17:12.003Z,36.30
2023-05-25T15:19:17.379Z,35.60
2023-05-25T15:21:20.521Z,34.50
2023-05-25T15:23:23.266Z,36.70
2023-05-25T15:27:34.792Z,37.10
2023-05-25T15:29:37.601Z,37.80
2023-05-25T15:31:40.440Z,38.20
2023-05-25T15:33:56.198Z,35.50
2023-05-25T15:36:00.969Z,35.80
2023-05-25T15:38:03.751Z,38.40
2023-05-25T15:40:07.665Z,36.90
2023-05-25T15:42:11.779Z,38.00
2023-05-25T15:44:14.604Z,39.40
2023-05-25T15:46:17.503Z,39.30
2023-05-25T15:48:20.278Z,39.90
2023-05-25T15:50:23.680Z,38.30
2023-05-25T15:52:26.558Z,37.50
2023-05-25T15:54:29.569Z,37.50
2023-05-25T15:56:33.058Z,37.40
2023-05-25T15:58:37.103Z,38.70
2023-05-25T16:00:39.905Z,38.40
2023-05-25T16:02:42.684Z,39.60
2023-05-25T16:04:45.548Z,37.90
2023-05-25T16:06:48.711Z,36.80
2023-05-25T16:08:51.540Z,35.30
2023-05-25T16:10:54.294Z,36.60
2023-05-25T16:12:57.094Z,35.90
2023-05-25T16:15:01.183Z,36.90
2023-05-25T16:17:03.922Z,36.40
2023-05-25T16:19:07.548Z,33.00
2023-05-25T16:21:10.355Z,34.40
2023-05-25T16:23:14.731Z,35.70
2023-05-25T16:25:17.488Z,35.80
2023-05-25T16:27:20.338Z,37.50
2023-05-25T16:29:23.214Z,37.80
2023-05-25T16:31:27.966Z,39.30
2023-05-25T16:33:30.781Z,37.60
2023-05-25T16:35:33.568Z,38.90
2023-05-25T16:37:36.314Z,38.70
2023-05-25T16:39:39.097Z,37.80
2023-05-25T16:41:42.038Z,35.50
2023-05-25T16:43:44.818Z,36.60
2023-05-25T16:45:47.894Z,37.50
2023-05-25T16:47:52.266Z,36.70
2023-05-25T16:49:55.109Z,37.60
2023-05-25T16:51:57.965Z,35.30
2023-05-25T16:54:00.764Z,36.20
2023-05-25T16:56:03.535Z,36.90
2023-05-25T16:58:06.400Z,36.70
2023-05-25T17:00:10.408Z,34.80
2023-05-25T17:02:13.185Z,34.90
2023-05-25T17:04:17.349Z,35.80
2023-05-25T17:06:20.145Z,36.30
2023-05-25T17:08:22.936Z,36.30
2023-05-25T17:10:25.928Z,35.00
2023-05-25T17:12:28.815Z,33.80
2023-05-25T17:14:31.749Z,32.80
2023-05-25T17:16:34.551Z,31.10
2023-05-25T17:18:37.429Z,30.40
2023-05-25T17:20:41.651Z,28.40
2023-05-25T17:22:44.571Z,28.20
2023-05-25T17:24:47.328Z,29.40
2023-05-25T17:26:51.484Z,26.80
2023-05-25T17:28:54.916Z,27.00
2023-05-25T17:30:58.821Z,26.60
2023-05-25T17:33:01.904Z,26.60
2023-05-25T17:35:05.025Z,26.80
2023-05-25T17:37:09.171Z,28.90
2023-05-25T17:39:12.021Z,29.00
2023-05-25T17:41:14.767Z,29.70
2023-05-25T17:43:17.790Z,30.20
2023-05-25T17:45:20.788Z,29.90
2023-05-25T17:47:23.921Z,30.30
2023-05-25T17:49:26.721Z,30.60
2023-05-25T17:51:29.763Z,29.20
2023-05-25T17:53:33.875Z,29.50
2023-05-25T17:55:36.796Z,30.30
2023-05-25T17:57:39.611Z,30.00
2023-05-25T17:59:44.841Z,28.30
2023-05-25T18:01:48.544Z,27.60
2023-05-25T18:03:52.336Z,26.40
2023-05-25T18:05:55.240Z,26.10
2023-05-25T18:07:58.047Z,25.90
2023-05-25T18:10:02.198Z,25.70
2023-05-25T18:12:05.246Z,25.70
2023-05-25T18:14:07.992Z,25.40
2023-05-25T18:16:11.009Z,25.00
2023-05-25T18:18:15.656Z,24.70
2023-05-25T18:20:18.553Z,24.00
2023-05-25T18:22:21.389Z,23.20
2023-05-25T18:24:24.178Z,22.40
2023-05-25T18:26:28.292Z,22.40
2023-05-25T18:28:31.451Z,22.00
2023-05-25T18:30:34.599Z,21.40
2023-05-25T18:32:37.396Z,20.90
2023-05-25T18:34:40.223Z,20.30
2023-05-25T18:36:42.990Z,20.40
2023-05-25T18:38:45.799Z,19.80
2023-05-25T18:40:48.553Z,19.70
2023-05-25T18:42:52.659Z,19.70
2023-05-25T18:44:55.401Z,19.60
2023-05-25T18:46:58.254Z,19.30
2023-05-25T18:49:01.119Z,19.30
2023-05-25T18:51:03.986Z,19.30
2023-05-25T18:53:09.733Z,19.00
2023-05-25T18:55:12.527Z,19.00
2023-05-25T18:57:15.475Z,18.70
2023-05-25T18:59:19.925Z,18.60
2023-05-25T19:01:22.736Z,18.60
2023-05-25T19:03:25.981Z,18.60
2023-05-25T19:05:28.824Z,18.40
2023-05-25T19:07:31.577Z,18.40
2023-05-25T19:09:34.541Z,18.40
2023-05-25T19:11:37.305Z,18.30
2023-05-25T19:13:40.137Z,17.90
2023-05-25T19:15:44.707Z,18.10
2023-05-25T19:17:47.796Z,17.50
2023-05-25T19:19:50.655Z,17.20
2023-05-25T19:21:54.151Z,17.00
2023-05-25T19:23:57.916Z,17.10
2023-05-25T19:26:00.689Z,16.70
2023-05-25T19:28:03.481Z,16.80
2023-05-25T19:30:07.231Z,16.70
2023-05-25T19:32:11.365Z,16.80
2023-05-25T19:34:14.124Z,17.00
2023-05-25T19:36:16.911Z,17.10
2023-05-25T19:38:19.734Z,17.10
2023-05-25T19:40:23.910Z,17.10
2023-05-25T19:42:26.694Z,16.80
2023-05-25T19:44:29.483Z,16.80
2023-05-25T19:46:32.348Z,16.70
2023-05-25T19:48:36.488Z,16.30
2023-05-25T19:50:39.273Z,16.20
2023-05-25T19:52:42.073Z,16.00
2023-05-25T19:54:44.955Z,16.10
2023-05-25T19:56:47.754Z,16.10
2023-05-25T19:58:50.531Z,16.20
2023-05-25T20:00:53.688Z,16.50
2023-05-25T20:02:56.693Z,16.70
2023-05-25T20:05:00.877Z,16.60
2023-05-25T20:07:03.698Z,16.50
2023-05-25T20:09:07.138Z,16.20
2023-05-25T20:11:10.263Z,16.20
2023-05-25T20:13:13.049Z,16.30
2023-05-25T20:15:16.036Z,16.30
2023-05-25T20:17:18.780Z,16.20
2023-05-25T20:19:23.713Z,16.10
2023-05-25T20:21:28.797Z,16.00
2023-05-25T20:23:32.078Z,15.90
2023-05-25T20:25:34.844Z,15.80
2023-05-25T20:27:37.575Z,15.80
2023-05-25T20:29:40.417Z,15.70
2023-05-25T20:31:43.195Z,15.80
2023-05-25T20:33:46.061Z,15.90
2023-05-25T20:35:48.866Z,16.00
2023-05-25T20:37:53.039Z,15.90
2023-05-25T20:39:55.793Z,15.60
2023-05-25T20:41:58.592Z,15.50
2023-05-25T20:44:02.312Z,15.60
2023-05-25T20:46:05.268Z,15.60
2023-05-25T20:48:08.071Z,15.70
2023-05-25T20:50:11.477Z,15.80
2023-05-25T20:52:14.251Z,15.90
2023-05-25T20:54:18.490Z,16.00
2023-05-25T20:56:22.130Z,16.10
2023-05-25T20:58:25.498Z,16.10
2023-05-25T21:00:28.404Z,16.10
2023-05-25T21:02:31.311Z,16.20
2023-05-25T21:04:34.128Z,16.20
2023-05-25T21:06:37.375Z,16.30
2023-05-25T21:08:40.126Z,16.30
2023-05-25T21:10:44.251Z,16.30
2023-05-25T21:12:47.085Z,16.30
2023-05-25T21:14:49.935Z,16.30
2023-05-25T21:16:52.754Z,16.30
2023-05-25T21:18:55.567Z,16.30
2023-05-25T21:20:58.333Z,16.30
2023-05-25T21:23:02.465Z,16.30
2023-05-25T21:25:06.450Z,16.30
2023-05-25T21:27:10.694Z,16.30
2023-05-25T21:29:13.581Z,16.20
2023-05-25T21:31:16.412Z,16.20
2023-05-25T21:33:19.324Z,16.30
2023-05-25T21:35:22.225Z,16.20
2023-05-25T21:37:25.899Z,16.20
2023-05-25T21:39:28.668Z,16.20
2023-05-25T21:41:31.466Z,16.20
2023-05-25T21:43:35.624Z,16.20
2023-05-25T21:45:38.418Z,16.00
2023-05-25T21:47:41.255Z,16.00
2023-05-25T21:49:44.002Z,15.80
2023-05-25T21:51:46.821Z,15.90
2023-05-25T21:53:49.668Z,16.00
2023-05-25T21:55:52.920Z,16.00
2023-05-25T21:57:55.834Z,16.10
2023-05-25T21:59:59.951Z,16.10
2023-05-25T22:02:02.901Z,16.10
2023-05-25T22:04:05.911Z,16.10
2023-05-25T22:06:08.796Z,16.10
2023-05-25T22:08:11.549Z,16.00
2023-05-25T22:10:14.379Z,16.00
2023-05-25T22:12:17.159Z,16.00
2023-05-25T22:14:19.914Z,15.90
2023-05-25T22:16:24.034Z,15.90
2023-05-25T22:18:26.815Z,15.80
2023-05-25T22:20:29.704Z,15.80
2023-05-25T22:22:32.489Z,15.70
2023-05-25T22:24:35.277Z,15.70
2023-05-25T22:26:38.007Z,15.60
2023-05-25T22:28:40.813Z,15.50
2023-05-25T22:30:43.607Z,15.40
2023-05-25T22:32:47.867Z,15.30
2023-05-25T22:34:50.640Z,15.20
2023-05-25T22:36:53.531Z,15.00
2023-05-25T22:38:56.313Z,15.00
2023-05-25T22:40:59.063Z,14.90
2023-05-25T22:43:01.819Z,14.90
2023-05-25T22:45:05.126Z,14.90
2023-05-25T22:47:08.032Z,14.90
2023-05-25T22:49:12.126Z,14.90
2023-05-25T22:51:14.962Z,14.90
2023-05-25T22:53:17.875Z,14.90
2023-05-25T22:55:21.575Z,14.90
2023-05-25T22:57:24.312Z,14.80
2023-05-25T22:59:27.062Z,14.70
2023-05-25T23:01:29.872Z,14.40
2023-05-25T23:03:32.809Z,14.30
2023-05-25T23:05:36.970Z,14.30
2023-05-25T23:07:39.731Z,14.30
2023-05-25T23:09:42.632Z,14.30
2023-05-25T23:11:45.481Z,14.10
2023-05-25T23:13:48.228Z,14.00
2023-05-25T23:15:51.185Z,14.00
2023-05-25T23:17:54.190Z,13.80
2023-05-25T23:19:57.100Z,13.60
2023-05-25T23:22:01.274Z,13.50
2023-05-25T23:24:04.221Z,13.60
2023-05-25T23:26:07.082Z,13.60
2023-05-25T23:28:09.924Z,13.60
2023-05-25T23:30:13.094Z,13.70
2023-05-25T23:32:16.043Z,13.70
2023-05-25T23:34:18.801Z,13.70
2023-05-25T23:36:21.797Z,13.60
2023-05-25T23:38:25.977Z,13.60
2023-05-25T23:40:29.066Z,13.70
2023-05-25T23:42:39.112Z,13.60
2023-05-25T23:44:42.038Z,13.70
2023-05-25T23:46:44.858Z,13.70
2023-05-25T23:48:47.609Z,13.80
2023-05-25T23:50:50.368Z,13.70
2023-05-25T23:52:53.101Z,13.70
2023-05-25T23:54:57.215Z,13.60
2023-05-25T23:56:59.930Z,13.70
2023-05-25T23:59:02.665Z,13.40
